createdAt,value
2018-07-05T00:02:09.721Z,23.48
2018-07-05T00:06:24.239Z,23.46
2018-07-05T00:10:38.819Z,23.45
2018-07-05T00:14:53.403Z,23.44
2018-07-05T00:19:08.102Z,23.41
2018-07-05T00:23:24.681Z,23.41
2018-07-05T00:27:39.217Z,23.42
2018-07-05T00:31:53.814Z,23.42
2018-07-05T00:36:08.283Z,23.38
2018-07-05T00:40:22.871Z,23.38
2018-07-05T00:44:38.223Z,23.40
2018-07-05T00:48:52.857Z,23.39
2018-07-05T00:53:07.490Z,23.36
2018-07-05T00:57:22.086Z,23.34
2018-07-05T01:01:37.664Z,23.30
2018-07-05T01:05:52.330Z,23.24
2018-07-05T01:10:07.902Z,23.23
2018-07-05T01:14:22.515Z,23.21
2018-07-05T01:18:40.980Z,23.17
2018-07-05T01:22:55.683Z,23.14
2018-07-05T01:27:10.223Z,23.13
2018-07-05T01:31:24.922Z,23.12
2018-07-05T01:35:39.494Z,23.10
2018-07-05T01:39:54.083Z,23.06
2018-07-05T01:44:09.712Z,23.04
2018-07-05T01:48:24.275Z,23.04
2018-07-05T01:52:40.354Z,23.02
2018-07-05T01:56:54.813Z,22.98
2018-07-05T02:01:10.442Z,22.97
2018-07-05T02:05:25.093Z,22.94
2018-07-05T02:09:40.652Z,22.94
2018-07-05T02:13:55.228Z,22.94
2018-07-05T02:18:09.724Z,22.93
2018-07-05T02:22:24.379Z,22.91
2018-07-05T02:26:38.964Z,22.91
2018-07-05T02:30:53.607Z,22.91
2018-07-05T02:35:08.271Z,22.88
2018-07-05T02:39:28.240Z,22.87
2018-07-05T02:43:42.654Z,22.86
2018-07-05T02:47:57.182Z,22.86
2018-07-05T02:52:12.000Z,22.86
2018-07-05T02:56:26.526Z,22.85
2018-07-05T03:00:44.890Z,22.83
2018-07-05T03:05:02.894Z,22.74
2018-07-05T03:09:17.345Z,22.56
2018-07-05T03:13:31.808Z,22.47
2018-07-05T03:17:46.327Z,22.36
2018-07-05T03:22:01.835Z,22.25
2018-07-05T03:26:17.416Z,22.10
2018-07-05T03:30:35.313Z,21.99
2018-07-05T03:34:49.852Z,21.91
2018-07-05T03:39:04.914Z,21.87
2018-07-05T03:43:19.498Z,21.81
2018-07-05T03:47:36.094Z,21.78
2018-07-05T03:51:50.685Z,21.79
2018-07-05T03:56:05.327Z,21.79
2018-07-05T04:00:20.923Z,21.75
2018-07-05T04:04:35.529Z,21.75
2018-07-05T04:08:50.267Z,21.71
2018-07-05T04:13:04.706Z,21.66
2018-07-05T04:17:19.444Z,21.66
2018-07-05T04:21:33.971Z,21.68
2018-07-05T04:25:48.528Z,21.68
2018-07-05T04:30:03.200Z,21.68
2018-07-05T04:34:17.915Z,21.69
2018-07-05T04:38:32.540Z,21.66
2018-07-05T04:42:47.089Z,21.65
2018-07-05T04:47:01.779Z,21.68
2018-07-05T04:51:16.447Z,21.67
2018-07-05T04:55:31.077Z,21.70
2018-07-05T04:59:45.759Z,21.74
2018-07-05T05:04:00.412Z,21.78
2018-07-05T05:08:15.080Z,21.87
2018-07-05T05:12:29.783Z,21.89
2018-07-05T05:16:50.990Z,21.90
2018-07-05T05:21:40.427Z,21.98
2018-07-05T05:30:19.805Z,22.28
2018-07-05T05:57:27.742Z,23.60
2018-07-05T06:01:50.815Z,23.73
2018-07-05T06:10:42.957Z,24.06
2018-07-05T06:15:00.460Z,24.22
2018-07-05T06:19:18.629Z,24.44
2018-07-05T06:23:33.418Z,24.64
2018-07-05T06:27:48.093Z,24.83
2018-07-05T06:32:02.826Z,24.98
2018-07-05T06:36:17.503Z,25.19
2018-07-05T06:40:32.386Z,25.41
2018-07-05T06:44:47.041Z,25.65
2018-07-05T06:49:01.762Z,25.83
2018-07-05T06:53:16.491Z,26.00
2018-07-05T06:57:31.264Z,26.14
2018-07-05T07:01:45.850Z,26.30
2018-07-05T07:06:00.650Z,26.44
2018-07-05T07:10:15.243Z,26.61
2018-07-05T07:14:29.998Z,26.82
2018-07-05T07:18:44.833Z,27.00
2018-07-05T07:22:59.618Z,27.16
2018-07-05T07:27:14.402Z,27.33
2018-07-05T07:31:29.252Z,27.47
2018-07-05T07:35:43.891Z,27.58
2018-07-05T07:39:58.521Z,27.74
2018-07-05T07:44:00.775Z,27.88
2018-07-05T07:48:03.001Z,27.93
2018-07-05T07:52:05.245Z,27.94
2018-07-05T07:56:07.480Z,28.03
2018-07-05T08:00:09.698Z,28.14
2018-07-05T08:04:11.935Z,28.28
2018-07-05T08:08:14.211Z,28.33
2018-07-05T08:12:16.399Z,28.38
2018-07-05T08:16:18.617Z,28.54
2018-07-05T08:20:20.891Z,28.68
2018-07-05T08:24:23.068Z,28.81
2018-07-05T08:28:25.307Z,28.97
2018-07-05T08:32:27.550Z,29.12
2018-07-05T08:36:29.789Z,29.25
2018-07-05T08:40:32.044Z,29.42
2018-07-05T08:44:34.371Z,29.60
2018-07-05T08:48:36.609Z,29.70
2018-07-05T08:52:38.850Z,29.81
2018-07-05T08:56:41.085Z,29.94
2018-07-05T09:00:43.317Z,30.04
2018-07-05T09:04:45.549Z,30.11
2018-07-05T09:08:47.762Z,30.21
2018-07-05T09:12:50.002Z,30.28
2018-07-05T09:16:52.217Z,30.38
2018-07-05T09:20:54.460Z,30.39
2018-07-05T09:24:56.708Z,30.49
2018-07-05T09:28:58.962Z,30.68
2018-07-05T09:33:01.174Z,30.83
2018-07-05T09:37:03.814Z,30.96
2018-07-05T09:41:05.958Z,31.09
2018-07-05T09:45:08.190Z,31.21
2018-07-05T09:49:10.432Z,31.31
2018-07-05T09:53:12.645Z,31.43
2018-07-05T09:57:14.885Z,31.49
2018-07-05T10:01:17.082Z,31.59
2018-07-05T10:05:19.309Z,31.70
2018-07-05T10:09:21.567Z,31.82
2018-07-05T10:13:23.882Z,31.85
2018-07-05T10:17:26.045Z,31.93
2018-07-05T10:21:28.326Z,32.01
2018-07-05T10:25:30.561Z,32.09
2018-07-05T10:29:45.212Z,32.13
2018-07-05T10:33:49.092Z,32.17
2018-07-05T10:37:53.057Z,32.18
2018-07-05T10:42:07.534Z,32.28
2018-07-05T10:46:22.348Z,32.37
2018-07-05T10:50:37.147Z,32.46
2018-07-05T10:54:51.896Z,32.53
2018-07-05T10:59:06.519Z,32.61
2018-07-05T11:03:21.259Z,32.67
2018-07-05T11:07:35.989Z,32.61
2018-07-05T11:11:50.705Z,32.71
2018-07-05T11:16:05.450Z,32.81
2018-07-05T11:20:20.238Z,32.87
2018-07-05T11:24:34.815Z,32.98
2018-07-05T11:28:49.458Z,33.06
2018-07-05T11:33:04.061Z,33.15
2018-07-05T11:37:18.691Z,33.21
2018-07-05T11:41:33.509Z,33.31
2018-07-05T11:45:48.038Z,33.43
2018-07-05T11:50:02.845Z,33.52
2018-07-05T11:54:17.622Z,33.59
2018-07-05T11:58:32.690Z,33.61
2018-07-05T12:02:47.502Z,33.62
2018-07-05T12:07:02.171Z,33.60
2018-07-05T12:11:16.840Z,33.46
2018-07-05T12:15:31.541Z,33.40
2018-07-05T12:19:46.345Z,33.41
2018-07-05T12:24:01.249Z,33.48
2018-07-05T12:28:15.979Z,33.64
2018-07-05T12:32:30.513Z,33.72
2018-07-05T12:36:45.616Z,33.75
2018-07-05T12:41:00.245Z,33.65
2018-07-05T12:45:14.949Z,33.51
2018-07-05T12:49:29.705Z,33.52
2018-07-05T12:53:44.398Z,33.57
2018-07-05T12:57:59.193Z,33.62
2018-07-05T13:02:13.861Z,33.59
2018-07-05T13:06:28.496Z,33.58
2018-07-05T13:10:43.161Z,33.60
2018-07-05T13:14:57.809Z,33.65
2018-07-05T13:19:12.545Z,33.73
2018-07-05T13:23:27.337Z,33.80
2018-07-05T13:27:42.493Z,33.59
2018-07-05T13:31:57.186Z,33.48
2018-07-05T13:36:11.912Z,33.38
2018-07-05T13:40:26.609Z,33.38
2018-07-05T13:44:41.327Z,33.42
2018-07-05T13:48:56.127Z,33.45
2018-07-05T13:53:10.844Z,33.47
2018-07-05T13:57:25.693Z,33.45
2018-07-05T14:01:40.373Z,33.43
2018-07-05T14:05:55.035Z,33.48
2018-07-05T14:10:09.692Z,33.51
2018-07-05T14:14:24.338Z,33.46
2018-07-05T14:18:39.022Z,33.42
2018-07-05T14:22:53.674Z,33.42
2018-07-05T14:27:08.413Z,33.42
2018-07-05T14:31:23.241Z,33.37
2018-07-05T14:35:37.857Z,33.46
2018-07-05T14:39:52.549Z,33.48
2018-07-05T14:44:07.218Z,33.51
2018-07-05T14:48:21.832Z,33.47
2018-07-05T14:52:36.502Z,33.28
2018-07-05T14:56:51.344Z,33.10
2018-07-05T15:01:05.975Z,33.01
2018-07-05T15:05:20.761Z,32.93
2018-07-05T15:09:35.448Z,32.77
2018-07-05T15:13:50.158Z,32.61
2018-07-05T15:18:04.848Z,32.43
2018-07-05T15:22:19.490Z,32.31
2018-07-05T15:26:34.246Z,32.25
2018-07-05T15:30:48.969Z,32.22
2018-07-05T15:35:03.647Z,32.16
2018-07-05T15:39:18.503Z,32.12
2018-07-05T15:43:33.188Z,32.07
2018-07-05T15:47:47.881Z,32.06
2018-07-05T15:52:02.506Z,31.95
2018-07-05T15:56:17.215Z,31.88
2018-07-05T16:00:31.997Z,31.81
2018-07-05T16:04:46.713Z,31.75
2018-07-05T16:09:01.415Z,31.66
2018-07-05T16:13:15.984Z,31.58
2018-07-05T16:17:30.671Z,31.50
2018-07-05T16:21:45.317Z,31.50
2018-07-05T16:26:00.070Z,31.46
2018-07-05T16:30:14.873Z,31.42
2018-07-05T16:34:29.562Z,31.43
2018-07-05T16:38:44.213Z,31.42
2018-07-05T16:42:58.899Z,31.34
2018-07-05T16:47:14.389Z,31.18
2018-07-05T16:51:29.287Z,30.92
2018-07-05T16:55:44.068Z,30.75
2018-07-05T16:59:59.802Z,30.51
2018-07-05T17:04:15.380Z,30.30
2018-07-05T17:08:30.155Z,30.08
2018-07-05T17:12:44.984Z,30.03
2018-07-05T17:16:59.691Z,29.99
2018-07-05T17:21:14.448Z,29.94
2018-07-05T17:25:29.080Z,29.89
2018-07-05T17:29:44.037Z,29.72
2018-07-05T17:33:58.709Z,29.55
2018-07-05T17:38:13.314Z,29.34
2018-07-05T17:42:27.913Z,29.21
2018-07-05T17:46:42.533Z,29.05
2018-07-05T17:50:57.274Z,29.01
2018-07-05T17:55:12.043Z,28.89
2018-07-05T17:59:27.854Z,28.76
2018-07-05T18:03:42.616Z,28.60
2018-07-05T18:07:57.316Z,28.42
2018-07-05T18:12:12.145Z,28.28
2018-07-05T18:16:26.892Z,28.16
2018-07-05T18:20:43.636Z,28.08
2018-07-05T18:24:58.406Z,27.84
2018-07-05T18:29:13.093Z,27.60
2018-07-05T18:33:27.927Z,27.39
2018-07-05T18:37:42.579Z,27.24
2018-07-05T18:41:57.329Z,27.14
2018-07-05T18:46:12.050Z,27.11
2018-07-05T18:50:26.839Z,27.08
2018-07-05T18:54:41.512Z,27.05
2018-07-05T18:58:57.239Z,27.02
2018-07-05T19:03:11.873Z,26.98
2018-07-05T19:07:26.669Z,26.96
2018-07-05T19:11:41.416Z,26.96
2018-07-05T19:15:56.042Z,26.98
2018-07-05T19:20:10.689Z,26.99
2018-07-05T19:24:25.480Z,26.96
2018-07-05T19:28:40.204Z,26.94
2018-07-05T19:32:55.007Z,26.96
2018-07-05T19:37:09.599Z,26.93
2018-07-05T19:41:24.326Z,26.84
2018-07-05T19:45:39.113Z,26.78
2018-07-05T19:49:55.038Z,26.71
2018-07-05T19:54:09.823Z,26.61
2018-07-05T19:58:24.500Z,26.47
2018-07-05T20:02:39.278Z,26.41
2018-07-05T20:06:54.919Z,26.34
2018-07-05T20:11:09.720Z,26.26
2018-07-05T20:15:25.373Z,26.18
2018-07-05T20:19:40.189Z,26.02
2018-07-05T20:23:54.915Z,25.98
2018-07-05T20:28:09.635Z,25.98
2018-07-05T20:32:24.497Z,25.94
2018-07-05T20:36:39.268Z,25.87
2018-07-05T20:40:54.292Z,25.80
2018-07-05T20:45:08.845Z,25.79
2018-07-05T20:49:23.649Z,25.75
2018-07-05T20:53:38.491Z,25.72
2018-07-05T20:57:53.243Z,25.68
2018-07-05T21:02:09.017Z,25.62
2018-07-05T21:06:23.762Z,25.54
2018-07-05T21:10:38.566Z,25.49
2018-07-05T21:14:55.322Z,25.46
2018-07-05T21:19:10.034Z,25.41
2018-07-05T21:23:26.130Z,25.37
2018-07-05T21:27:41.821Z,25.33
2018-07-05T21:31:56.605Z,25.31
2018-07-05T21:36:11.278Z,25.32
2018-07-05T21:40:26.121Z,25.31
2018-07-05T21:44:40.837Z,25.35
2018-07-05T21:48:55.542Z,25.38
2018-07-05T21:53:11.218Z,25.37
2018-07-05T21:57:25.941Z,25.31
2018-07-05T22:01:41.686Z,25.22
2018-07-05T22:05:56.430Z,25.10
2018-07-05T22:10:11.082Z,24.96
2018-07-05T22:14:25.949Z,24.81
2018-07-05T22:18:46.028Z,24.59
2018-07-05T22:24:10.042Z,24.33
2018-07-05T22:28:30.286Z,24.02
2018-07-05T22:32:44.975Z,23.82
2018-07-05T22:36:59.714Z,23.64
2018-07-05T22:41:14.538Z,23.50
2018-07-05T22:45:29.178Z,23.40
2018-07-05T22:49:43.959Z,23.20
2018-07-05T22:53:59.725Z,23.06
2018-07-05T22:58:14.925Z,22.88
2018-07-05T23:02:29.622Z,22.77
2018-07-05T23:06:44.396Z,22.62
2018-07-05T23:10:59.151Z,22.54
2018-07-05T23:15:13.866Z,22.44
2018-07-05T23:19:28.575Z,22.37
2018-07-05T23:23:43.180Z,22.31
2018-07-05T23:27:57.853Z,22.19
2018-07-05T23:32:14.522Z,22.15
2018-07-05T23:36:31.078Z,22.05
2018-07-05T23:40:45.878Z,21.96
2018-07-05T23:45:01.587Z,21.89
2018-07-05T23:49:16.346Z,21.85
2018-07-05T23:53:31.985Z,21.79
2018-07-05T23:57:47.733Z,21.78
